sensor_id;sensor_type;location;lat;lon;timestamp;P1;durP1;ratioP1;P2;durP2;ratioP2
40731;SDS011;26420;52.256;9.096;2022-09-29T00:01:56;14.80;;;8.05;;
40731;SDS011;26420;52.256;9.096;2022-09-29T00:07:01;17.08;;;9.55;;
40731;SDS011;26420;52.256;9.096;2022-09-29T00:12:07;17.95;;;10.25;;
40731;SDS011;26420;52.256;9.096;2022-09-29T00:17:12;18.88;;;11.75;;
40731;SDS011;26420;52.256;9.096;2022-09-29T00:22:18;17.42;;;11.25;;
40731;SDS011;26420;52.256;9.096;2022-09-29T00:27:23;21.77;;;10.85;;
40731;SDS011;26420;52.256;9.096;2022-09-29T00:32:29;15.65;;;8.80;;
40731;SDS011;26420;52.256;9.096;2022-09-29T00:37:35;15.80;;;9.93;;
40731;SDS011;26420;52.256;9.096;2022-09-29T00:42:40;19.92;;;10.70;;
40731;SDS011;26420;52.256;9.096;2022-09-29T00:47:48;18.02;;;10.50;;
40731;SDS011;26420;52.256;9.096;2022-09-29T00:52:55;19.73;;;11.35;;
40731;SDS011;26420;52.256;9.096;2022-09-29T00:58:04;19.33;;;11.18;;
40731;SDS011;26420;52.256;9.096;2022-09-29T01:03:12;19.38;;;12.05;;
40731;SDS011;26420;52.256;9.096;2022-09-29T01:08:40;21.48;;;12.57;;
40731;SDS011;26420;52.256;9.096;2022-09-29T01:13:46;24.05;;;13.23;;
40731;SDS011;26420;52.256;9.096;2022-09-29T01:18:52;21.52;;;13.60;;
40731;SDS011;26420;52.256;9.096;2022-09-29T01:34:49;20.05;;;12.93;;
40731;SDS011;26420;52.256;9.096;2022-09-29T01:39:50;23.05;;;12.90;;
40731;SDS011;26420;52.256;9.096;2022-09-29T01:45:01;21.92;;;13.30;;
40731;SDS011;26420;52.256;9.096;2022-09-29T01:50:14;21.27;;;13.05;;
40731;SDS011;26420;52.256;9.096;2022-09-29T01:55:23;23.73;;;13.18;;
40731;SDS011;26420;52.256;9.096;2022-09-29T02:00:29;15.30;;;8.73;;
40731;SDS011;26420;52.256;9.096;2022-09-29T02:05:47;22.90;;;13.45;;
40731;SDS011;26420;52.256;9.096;2022-09-29T02:10:58;22.42;;;12.07;;
40731;SDS011;26420;52.256;9.096;2022-09-29T02:16:05;21.20;;;12.35;;
40731;SDS011;26420;52.256;9.096;2022-09-29T02:26:18;20.25;;;13.05;;
40731;SDS011;26420;52.256;9.096;2022-09-29T02:31:23;21.38;;;12.90;;
40731;SDS011;26420;52.256;9.096;2022-09-29T02:41:46;23.92;;;13.32;;
40731;SDS011;26420;52.256;9.096;2022-09-29T03:02:38;22.83;;;13.27;;
40731;SDS011;26420;52.256;9.096;2022-09-29T03:07:43;23.40;;;14.15;;
40731;SDS011;26420;52.256;9.096;2022-09-29T03:12:48;22.35;;;13.43;;
40731;SDS011;26420;52.256;9.096;2022-09-29T03:17:54;23.58;;;13.32;;
40731;SDS011;26420;52.256;9.096;2022-09-29T03:22:59;23.35;;;13.35;;
40731;SDS011;26420;52.256;9.096;2022-09-29T03:28:04;20.42;;;12.25;;
40731;SDS011;26420;52.256;9.096;2022-09-29T03:33:09;23.33;;;13.10;;
40731;SDS011;26420;52.256;9.096;2022-09-29T03:38:14;23.05;;;12.77;;
40731;SDS011;26420;52.256;9.096;2022-09-29T03:43:19;22.25;;;12.57;;
40731;SDS011;26420;52.256;9.096;2022-09-29T03:48:25;21.75;;;13.05;;
40731;SDS011;26420;52.256;9.096;2022-09-29T03:53:33;23.70;;;13.88;;
40731;SDS011;26420;52.256;9.096;2022-09-29T03:58:38;24.03;;;13.73;;
40731;SDS011;26420;52.256;9.096;2022-09-29T04:03:43;23.55;;;13.93;;
40731;SDS011;26420;52.256;9.096;2022-09-29T04:08:48;24.85;;;13.30;;
40731;SDS011;26420;52.256;9.096;2022-09-29T04:13:53;23.90;;;13.38;;
40731;SDS011;26420;52.256;9.096;2022-09-29T04:18:58;24.02;;;13.02;;
40731;SDS011;26420;52.256;9.096;2022-09-29T04:24:03;26.08;;;13.77;;
40731;SDS011;26420;52.256;9.096;2022-09-29T04:29:09;23.77;;;13.82;;
40731;SDS011;26420;52.256;9.096;2022-09-29T04:34:14;25.50;;;13.68;;
40731;SDS011;26420;52.256;9.096;2022-09-29T04:39:19;24.73;;;13.68;;
40731;SDS011;26420;52.256;9.096;2022-09-29T04:44:24;27.13;;;14.48;;
40731;SDS011;26420;52.256;9.096;2022-09-29T04:49:29;27.30;;;15.15;;
40731;SDS011;26420;52.256;9.096;2022-09-29T04:54:34;28.17;;;15.18;;
40731;SDS011;26420;52.256;9.096;2022-09-29T04:59:39;28.50;;;14.63;;
40731;SDS011;26420;52.256;9.096;2022-09-29T05:04:44;28.50;;;15.48;;
40731;SDS011;26420;52.256;9.096;2022-09-29T05:09:49;29.58;;;14.98;;
40731;SDS011;26420;52.256;9.096;2022-09-29T05:14:55;29.23;;;15.10;;
40731;SDS011;26420;52.256;9.096;2022-09-29T05:20:00;26.25;;;15.07;;
40731;SDS011;26420;52.256;9.096;2022-09-29T05:25:05;28.25;;;14.68;;
40731;SDS011;26420;52.256;9.096;2022-09-29T05:30:10;27.70;;;14.68;;
40731;SDS011;26420;52.256;9.096;2022-09-29T05:35:15;24.52;;;13.95;;
40731;SDS011;26420;52.256;9.096;2022-09-29T05:40:21;27.02;;;15.05;;
40731;SDS011;26420;52.256;9.096;2022-09-29T05:45:27;29.67;;;14.90;;
40731;SDS011;26420;52.256;9.096;2022-09-29T05:50:32;28.10;;;14.18;;
40731;SDS011;26420;52.256;9.096;2022-09-29T05:55:43;28.65;;;14.65;;
40731;SDS011;26420;52.256;9.096;2022-09-29T06:00:48;28.85;;;14.48;;
40731;SDS011;26420;52.256;9.096;2022-09-29T06:05:53;25.80;;;14.70;;
40731;SDS011;26420;52.256;9.096;2022-09-29T06:11:08;29.27;;;15.00;;
40731;SDS011;26420;52.256;9.096;2022-09-29T06:16:14;26.00;;;13.82;;
40731;SDS011;26420;52.256;9.096;2022-09-29T06:21:21;25.95;;;14.55;;
40731;SDS011;26420;52.256;9.096;2022-09-29T06:26:27;24.95;;;13.68;;
40731;SDS011;26420;52.256;9.096;2022-09-29T06:31:32;25.35;;;13.48;;
40731;SDS011;26420;52.256;9.096;2022-09-29T06:36:41;24.80;;;13.02;;
40731;SDS011;26420;52.256;9.096;2022-09-29T06:42:05;25.88;;;12.65;;
40731;SDS011;26420;52.256;9.096;2022-09-29T06:47:10;23.67;;;13.63;;
40731;SDS011;26420;52.256;9.096;2022-09-29T06:52:15;25.90;;;13.05;;
40731;SDS011;26420;52.256;9.096;2022-09-29T06:57:21;24.20;;;12.75;;
40731;SDS011;26420;52.256;9.096;2022-09-29T07:02:27;22.15;;;13.38;;
40731;SDS011;26420;52.256;9.096;2022-09-29T07:07:32;24.70;;;12.68;;
40731;SDS011;26420;52.256;9.096;2022-09-29T07:12:37;24.73;;;12.98;;
40731;SDS011;26420;52.256;9.096;2022-09-29T07:17:50;24.80;;;13.27;;
40731;SDS011;26420;52.256;9.096;2022-09-29T07:22:55;20.67;;;12.07;;
40731;SDS011;26420;52.256;9.096;2022-09-29T07:28:00;21.15;;;12.05;;
40731;SDS011;26420;52.256;9.096;2022-09-29T07:33:05;19.70;;;11.43;;
40731;SDS011;26420;52.256;9.096;2022-09-29T07:38:10;21.77;;;12.63;;
40731;SDS011;26420;52.256;9.096;2022-09-29T07:43:15;18.70;;;11.40;;
40731;SDS011;26420;52.256;9.096;2022-09-29T07:48:21;23.73;;;11.82;;
40731;SDS011;26420;52.256;9.096;2022-09-29T07:53:32;20.77;;;11.77;;
40731;SDS011;26420;52.256;9.096;2022-09-29T07:58:38;19.55;;;11.40;;
40731;SDS011;26420;52.256;9.096;2022-09-29T08:03:47;20.80;;;10.90;;
40731;SDS011;26420;52.256;9.096;2022-09-29T08:08:53;21.58;;;12.63;;
40731;SDS011;26420;52.256;9.096;2022-09-29T08:14:05;21.13;;;11.52;;
40731;SDS011;26420;52.256;9.096;2022-09-29T08:19:10;18.95;;;11.65;;
40731;SDS011;26420;52.256;9.096;2022-09-29T08:24:15;20.52;;;10.73;;
40731;SDS011;26420;52.256;9.096;2022-09-29T08:29:21;24.80;;;11.80;;
40731;SDS011;26420;52.256;9.096;2022-09-29T08:34:27;20.60;;;11.15;;
40731;SDS011;26420;52.256;9.096;2022-09-29T08:39:32;23.15;;;11.88;;
40731;SDS011;26420;52.256;9.096;2022-09-29T08:44:40;16.70;;;10.38;;
40731;SDS011;26420;52.256;9.096;2022-09-29T08:49:47;16.70;;;9.63;;
40731;SDS011;26420;52.256;9.096;2022-09-29T08:54:58;16.98;;;10.35;;
40731;SDS011;26420;52.256;9.096;2022-09-29T09:00:20;16.35;;;9.73;;
40731;SDS011;26420;52.256;9.096;2022-09-29T09:06:12;13.95;;;8.73;;
40731;SDS011;26420;52.256;9.096;2022-09-29T09:11:10;14.45;;;7.93;;
40731;SDS011;26420;52.256;9.096;2022-09-29T09:21:42;13.73;;;7.25;;
40731;SDS011;26420;52.256;9.096;2022-09-29T09:26:46;11.65;;;7.28;;
40731;SDS011;26420;52.256;9.096;2022-09-29T09:42:12;15.32;;;8.63;;
40731;SDS011;26420;52.256;9.096;2022-09-29T09:47:30;13.20;;;8.15;;
40731;SDS011;26420;52.256;9.096;2022-09-29T09:52:55;14.23;;;8.38;;
40731;SDS011;26420;52.256;9.096;2022-09-29T10:03:09;12.05;;;7.75;;
40731;SDS011;26420;52.256;9.096;2022-09-29T10:13:21;11.35;;;7.53;;
40731;SDS011;26420;52.256;9.096;2022-09-29T10:23:35;10.98;;;7.65;;
40731;SDS011;26420;52.256;9.096;2022-09-29T10:28:42;8.70;;;6.55;;
40731;SDS011;26420;52.256;9.096;2022-09-29T10:39:08;8.02;;;5.88;;
40731;SDS011;26420;52.256;9.096;2022-09-29T10:44:31;10.32;;;6.57;;
40731;SDS011;26420;52.256;9.096;2022-09-29T10:49:34;10.05;;;5.47;;
40731;SDS011;26420;52.256;9.096;2022-09-29T10:54:38;8.45;;;5.78;;
40731;SDS011;26420;52.256;9.096;2022-09-29T10:59:53;8.13;;;4.95;;
40731;SDS011;26420;52.256;9.096;2022-09-29T11:04:58;8.73;;;5.90;;
40731;SDS011;26420;52.256;9.096;2022-09-29T11:10:02;8.95;;;4.72;;
40731;SDS011;26420;52.256;9.096;2022-09-29T11:15:21;8.98;;;4.55;;
40731;SDS011;26420;52.256;9.096;2022-09-29T11:20:26;6.78;;;4.15;;
40731;SDS011;26420;52.256;9.096;2022-09-29T11:25:40;6.43;;;4.70;;
40731;SDS011;26420;52.256;9.096;2022-09-29T11:31:00;5.53;;;3.75;;
40731;SDS011;26420;52.256;9.096;2022-09-29T11:46:27;4.07;;;3.53;;
40731;SDS011;26420;52.256;9.096;2022-09-29T11:56:54;5.55;;;4.20;;
40731;SDS011;26420;52.256;9.096;2022-09-29T12:07:19;8.23;;;5.03;;
40731;SDS011;26420;52.256;9.096;2022-09-29T12:17:42;7.10;;;4.70;;
40731;SDS011;26420;52.256;9.096;2022-09-29T12:22:46;8.18;;;5.00;;
40731;SDS011;26420;52.256;9.096;2022-09-29T12:27:49;8.15;;;4.78;;
40731;SDS011;26420;52.256;9.096;2022-09-29T12:43:22;4.28;;;2.80;;
40731;SDS011;26420;52.256;9.096;2022-09-29T12:48:31;3.33;;;2.80;;
40731;SDS011;26420;52.256;9.096;2022-09-29T12:53:37;5.82;;;3.40;;
40731;SDS011;26420;52.256;9.096;2022-09-29T12:58:42;4.10;;;2.70;;
40731;SDS011;26420;52.256;9.096;2022-09-29T13:14:27;2.60;;;1.67;;
40731;SDS011;26420;52.256;9.096;2022-09-29T13:30:20;2.47;;;1.50;;
40731;SDS011;26420;52.256;9.096;2022-09-29T13:35:23;1.85;;;1.55;;
40731;SDS011;26420;52.256;9.096;2022-09-29T13:40:28;4.82;;;1.92;;
40731;SDS011;26420;52.256;9.096;2022-09-29T13:55:47;2.13;;;1.38;;
40731;SDS011;26420;52.256;9.096;2022-09-29T14:00:50;2.33;;;1.35;;
40731;SDS011;26420;52.256;9.096;2022-09-29T14:06:02;1.42;;;1.25;;
40731;SDS011;26420;52.256;9.096;2022-09-29T14:11:27;1.50;;;1.05;;
40731;SDS011;26420;52.256;9.096;2022-09-29T14:27:06;1.42;;;0.80;;
40731;SDS011;26420;52.256;9.096;2022-09-29T14:32:22;2.60;;;1.27;;
40731;SDS011;26420;52.256;9.096;2022-09-29T14:37:32;0.93;;;0.80;;
40731;SDS011;26420;52.256;9.096;2022-09-29T14:42:35;1.10;;;1.00;;
40731;SDS011;26420;52.256;9.096;2022-09-29T15:03:10;0.90;;;0.80;;
40731;SDS011;26420;52.256;9.096;2022-09-29T15:08:29;1.95;;;0.93;;
40731;SDS011;26420;52.256;9.096;2022-09-29T15:13:36;1.00;;;0.85;;
40731;SDS011;26420;52.256;9.096;2022-09-29T15:19:27;1.40;;;1.15;;
40731;SDS011;26420;52.256;9.096;2022-09-29T15:24:13;1.33;;;1.17;;
40731;SDS011;26420;52.256;9.096;2022-09-29T15:29:19;2.05;;;0.90;;
40731;SDS011;26420;52.256;9.096;2022-09-29T15:34:22;2.28;;;1.38;;
40731;SDS011;26420;52.256;9.096;2022-09-29T15:44:31;1.20;;;1.10;;
40731;SDS011;26420;52.256;9.096;2022-09-29T15:49:34;2.38;;;1.10;;
40731;SDS011;26420;52.256;9.096;2022-09-29T15:54:40;2.75;;;1.73;;
40731;SDS011;26420;52.256;9.096;2022-09-29T15:59:48;2.80;;;1.23;;
40731;SDS011;26420;52.256;9.096;2022-09-29T16:04:55;2.30;;;1.10;;
40731;SDS011;26420;52.256;9.096;2022-09-29T16:10:00;4.47;;;1.17;;
40731;SDS011;26420;52.256;9.096;2022-09-29T16:15:04;2.00;;;1.00;;
40731;SDS011;26420;52.256;9.096;2022-09-29T16:20:10;3.33;;;1.45;;
40731;SDS011;26420;52.256;9.096;2022-09-29T16:25:24;5.00;;;2.30;;
40731;SDS011;26420;52.256;9.096;2022-09-29T16:30:31;1.52;;;1.42;;
40731;SDS011;26420;52.256;9.096;2022-09-29T16:35:36;1.42;;;1.02;;
40731;SDS011;26420;52.256;9.096;2022-09-29T16:40:39;2.70;;;1.25;;
40731;SDS011;26420;52.256;9.096;2022-09-29T16:45:41;3.33;;;1.80;;
40731;SDS011;26420;52.256;9.096;2022-09-29T16:50:45;4.65;;;3.50;;
40731;SDS011;26420;52.256;9.096;2022-09-29T16:56:00;5.28;;;4.07;;
40731;SDS011;26420;52.256;9.096;2022-09-29T17:01:02;3.90;;;2.05;;
40731;SDS011;26420;52.256;9.096;2022-09-29T17:06:05;2.10;;;1.60;;
40731;SDS011;26420;52.256;9.096;2022-09-29T17:11:07;2.17;;;1.98;;
40731;SDS011;26420;52.256;9.096;2022-09-29T17:16:09;5.53;;;1.58;;
40731;SDS011;26420;52.256;9.096;2022-09-29T17:21:13;4.70;;;2.17;;
40731;SDS011;26420;52.256;9.096;2022-09-29T17:26:19;4.82;;;2.25;;
40731;SDS011;26420;52.256;9.096;2022-09-29T17:31:40;4.18;;;3.05;;
40731;SDS011;26420;52.256;9.096;2022-09-29T17:36:42;2.00;;;1.75;;
40731;SDS011;26420;52.256;9.096;2022-09-29T17:41:45;3.00;;;2.70;;
40731;SDS011;26420;52.256;9.096;2022-09-29T17:46:49;2.20;;;2.00;;
40731;SDS011;26420;52.256;9.096;2022-09-29T17:52:01;3.22;;;1.85;;
40731;SDS011;26420;52.256;9.096;2022-09-29T17:57:03;4.00;;;2.53;;
40731;SDS011;26420;52.256;9.096;2022-09-29T18:02:10;2.25;;;2.03;;
40731;SDS011;26420;52.256;9.096;2022-09-29T18:07:16;5.65;;;1.70;;
40731;SDS011;26420;52.256;9.096;2022-09-29T18:12:18;4.70;;;1.90;;
40731;SDS011;26420;52.256;9.096;2022-09-29T18:17:21;2.17;;;1.40;;
40731;SDS011;26420;52.256;9.096;2022-09-29T18:22:23;3.42;;;1.98;;
40731;SDS011;26420;52.256;9.096;2022-09-29T18:27:25;3.85;;;2.30;;
40731;SDS011;26420;52.256;9.096;2022-09-29T18:32:27;3.30;;;2.28;;
40731;SDS011;26420;52.256;9.096;2022-09-29T18:37:29;2.67;;;2.47;;
40731;SDS011;26420;52.256;9.096;2022-09-29T18:42:32;67.78;;;37.50;;
40731;SDS011;26420;52.256;9.096;2022-09-29T18:47:35;10.38;;;7.90;;
40731;SDS011;26420;52.256;9.096;2022-09-29T18:52:37;7.97;;;7.07;;
40731;SDS011;26420;52.256;9.096;2022-09-29T18:57:39;27.80;;;12.55;;
40731;SDS011;26420;52.256;9.096;2022-09-29T19:02:42;24.17;;;10.63;;
40731;SDS011;26420;52.256;9.096;2022-09-29T19:07:44;11.90;;;7.18;;
40731;SDS011;26420;52.256;9.096;2022-09-29T19:12:47;12.40;;;10.27;;
40731;SDS011;26420;52.256;9.096;2022-09-29T19:17:51;15.85;;;9.57;;
40731;SDS011;26420;52.256;9.096;2022-09-29T19:22:57;20.33;;;12.65;;
40731;SDS011;26420;52.256;9.096;2022-09-29T19:28:03;11.02;;;7.40;;
40731;SDS011;26420;52.256;9.096;2022-09-29T19:33:06;9.48;;;6.15;;
40731;SDS011;26420;52.256;9.096;2022-09-29T19:38:09;16.70;;;8.27;;
40731;SDS011;26420;52.256;9.096;2022-09-29T19:43:11;22.77;;;10.40;;
40731;SDS011;26420;52.256;9.096;2022-09-29T19:48:15;15.70;;;10.18;;
40731;SDS011;26420;52.256;9.096;2022-09-29T19:53:18;12.55;;;9.70;;
40731;SDS011;26420;52.256;9.096;2022-09-29T19:58:20;7.10;;;4.95;;
40731;SDS011;26420;52.256;9.096;2022-09-29T20:03:23;6.30;;;3.28;;
40731;SDS011;26420;52.256;9.096;2022-09-29T20:08:26;3.42;;;2.78;;
40731;SDS011;26420;52.256;9.096;2022-09-29T20:13:28;4.20;;;3.47;;
40731;SDS011;26420;52.256;9.096;2022-09-29T20:18:31;6.57;;;3.20;;
40731;SDS011;26420;52.256;9.096;2022-09-29T20:23:35;4.88;;;3.33;;
40731;SDS011;26420;52.256;9.096;2022-09-29T20:28:40;3.53;;;3.22;;
40731;SDS011;26420;52.256;9.096;2022-09-29T20:33:42;4.32;;;3.60;;
40731;SDS011;26420;52.256;9.096;2022-09-29T20:38:45;4.05;;;3.42;;
40731;SDS011;26420;52.256;9.096;2022-09-29T20:43:48;5.63;;;3.13;;
40731;SDS011;26420;52.256;9.096;2022-09-29T20:48:52;4.57;;;3.70;;
40731;SDS011;26420;52.256;9.096;2022-09-29T20:53:55;4.88;;;3.40;;
40731;SDS011;26420;52.256;9.096;2022-09-29T20:58:58;7.03;;;3.42;;
40731;SDS011;26420;52.256;9.096;2022-09-29T21:04:04;4.20;;;3.55;;
40731;SDS011;26420;52.256;9.096;2022-09-29T21:09:11;3.00;;;2.70;;
40731;SDS011;26420;52.256;9.096;2022-09-29T21:14:21;4.47;;;3.17;;
40731;SDS011;26420;52.256;9.096;2022-09-29T21:19:24;4.47;;;3.67;;
40731;SDS011;26420;52.256;9.096;2022-09-29T21:24:26;4.28;;;3.33;;
40731;SDS011;26420;52.256;9.096;2022-09-29T21:29:29;5.32;;;3.20;;
40731;SDS011;26420;52.256;9.096;2022-09-29T21:34:31;3.80;;;3.17;;
40731;SDS011;26420;52.256;9.096;2022-09-29T21:39:33;4.80;;;4.15;;
40731;SDS011;26420;52.256;9.096;2022-09-29T21:44:35;6.75;;;4.35;;
40731;SDS011;26420;52.256;9.096;2022-09-29T21:49:38;8.63;;;5.57;;
40731;SDS011;26420;52.256;9.096;2022-09-29T21:54:40;6.68;;;5.20;;
40731;SDS011;26420;52.256;9.096;2022-09-29T21:59:42;8.93;;;5.75;;
40731;SDS011;26420;52.256;9.096;2022-09-29T22:04:44;8.48;;;5.45;;
40731;SDS011;26420;52.256;9.096;2022-09-29T22:09:46;11.32;;;5.88;;
40731;SDS011;26420;52.256;9.096;2022-09-29T22:14:48;6.68;;;5.65;;
40731;SDS011;26420;52.256;9.096;2022-09-29T22:19:50;6.63;;;5.30;;
40731;SDS011;26420;52.256;9.096;2022-09-29T22:24:52;8.65;;;6.43;;
40731;SDS011;26420;52.256;9.096;2022-09-29T22:29:55;10.98;;;6.68;;
40731;SDS011;26420;52.256;9.096;2022-09-29T22:34:57;5.45;;;4.45;;
40731;SDS011;26420;52.256;9.096;2022-09-29T22:40:00;5.25;;;4.07;;
40731;SDS011;26420;52.256;9.096;2022-09-29T22:45:04;6.20;;;4.30;;
40731;SDS011;26420;52.256;9.096;2022-09-29T22:50:06;10.35;;;6.03;;
40731;SDS011;26420;52.256;9.096;2022-09-29T22:55:08;8.07;;;5.95;;
40731;SDS011;26420;52.256;9.096;2022-09-29T23:00:11;12.27;;;5.85;;
40731;SDS011;26420;52.256;9.096;2022-09-29T23:05:13;7.07;;;5.28;;
40731;SDS011;26420;52.256;9.096;2022-09-29T23:10:16;6.20;;;5.60;;
40731;SDS011;26420;52.256;9.096;2022-09-29T23:15:18;8.30;;;6.50;;
40731;SDS011;26420;52.256;9.096;2022-09-29T23:20:20;8.55;;;6.15;;
40731;SDS011;26420;52.256;9.096;2022-09-29T23:25:23;9.50;;;6.93;;
40731;SDS011;26420;52.256;9.096;2022-09-29T23:30:25;8.35;;;6.50;;
40731;SDS011;26420;52.256;9.096;2022-09-29T23:35:27;7.32;;;6.47;;
40731;SDS011;26420;52.256;9.096;2022-09-29T23:40:29;9.65;;;6.60;;
40731;SDS011;26420;52.256;9.096;2022-09-29T23:45:32;7.93;;;7.05;;
40731;SDS011;26420;52.256;9.096;2022-09-29T23:50:34;11.63;;;6.85;;
40731;SDS011;26420;52.256;9.096;2022-09-29T23:55:36;11.05;;;7.10;;
